LFMDLFKC

Guest
Details From LFMD - Mandelieu
To LFKC - St Catherine
Flight Number -
Tags generated
Created
Modified
Stats Distance 101 nm / 187 km
Max Altitude 4,000 ft / 1,219 m
Waypoints 3
Social Downloads 3
Likes 0
Share

Download

Looking for another format? Having issues loading an existing format? Contact us
Advertisement - Login to hide

Notes

Basic altitude profile: - Ascent Rate: 1500ft/min - Ascent Speed: 250kts - Cruise Altitude: 4000ft - Cruise Speed: 420kts - Descent Rate: 1500ft/min - Descent Speed: 250kts Options: - Use NATs: yes - Use PACOTS: yes - Use low airways: yes - Use high airways: yes

Route

LFMD EBORA LFKC

ID Type Via Altitude (ft/m) Position (lat/lon) Dist (leg/tot) Name
O LFMD APT - 0 / 0 43.54670 / 6.95310 - / 0 nm Mandelieu
EBORA FIX - 4,000 / 1,219 43.32780 / 7.36250 22 / 22 nm
O LFKC APT - 0 / 0 42.53080 / 8.79298 79 / 101 nm St Catherine

Altitude Profile

Advertisement - Login to hide

LFMD

Details ICAO LFMD (CEQ)
Name Mandelieu
Region France
Timezone Europe/Paris (UTC+2.0)
Stats Elevation 12 ft / 4 m (AMSL)
Location 43.546700° 6.953100°
Runways 3
Magnetic Variation 2.235° E

METAR

LFMD 030500Z AUTO VRB02KT CAVOK 16/14 Q1010

Decode

TAF

Not found

Departure Runways

ID Width Length Bearing (true/mag) Surface Threshold Overrun Markings Lighting
05 98 ft / 30 m 2,430 ft / 741 m 45.28° / 43.05° ASPHALT 295 ft / 90 m 0 ft / 0 m VISUAL
17 148 ft / 45 m 5,287 ft / 1,611 m 172.58° / 170.35° ASPHALT 689 ft / 210 m 0 ft / 0 m PREC-APP EDGE THRESHOLD REIL-OMNI
17L 164 ft / 50 m 1,872 ft / 571 m 172.60° / 170.37° GRASS 0 ft / 0 m 0 ft / 0 m NONE
23 98 ft / 30 m 2,430 ft / 741 m 225.28° / 223.05° ASPHALT 98 ft / 30 m 0 ft / 0 m VISUAL
35 148 ft / 45 m 5,287 ft / 1,611 m 352.58° / 350.35° ASPHALT 1,148 ft / 350 m 0 ft / 0 m PREC-APP EDGE THRESHOLD REIL-OMNI
35R 164 ft / 50 m 1,872 ft / 571 m 352.60° / 350.37° GRASS 0 ft / 0 m 0 ft / 0 m NONE

LFKC

Details ICAO LFKC (CLY)
Name St Catherine
Region France
Timezone Europe/Paris (UTC+2.0)
Stats Elevation 208 ft / 63 m (AMSL)
Location 42.530800° 8.792980°
Runways 1
Magnetic Variation 2.610° E

METAR

LFKC 030500Z AUTO VRB02KT CAVOK 15/10 Q1012 NOSIG

Decode

TAF

TAF LFKC 030200Z 0303/0403 18005KT CAVOK TX25/0312Z TN13/0303Z BECMG 0307/0310 22012KT SCT030 BECMG 0321/0324 18004KT CAVOK

Decode

Destination Runways

ID Width Length Bearing (true/mag) Surface Threshold Overrun Markings Lighting
18 131 ft / 40 m 7,586 ft / 2,312 m 179.81° / 177.20° CONCRETE 0 ft / 0 m 0 ft / 0 m APP CENTERLINE EDGE THRESHOLD
36 131 ft / 40 m 7,586 ft / 2,312 m 359.81° / 357.20° CONCRETE 663 ft / 202 m 0 ft / 0 m APP CENTERLINE EDGE THRESHOLD ALSF-I

Approach Navaids

Runway Type Ident Frequency Range Bearing (true/mag) Slope Elevation
18 LOC-LOC CLI 109.50 MHz 18 nm / 33 km 179.81° / 177.20 ° - 208 ft / 63 m (AMSL)
18 DME CLI 109.50 MHz 18 nm / 33 km - - 230 ft / 70 m (AMSL)

Popular Alternatives